Time;durP1;ratioP1;P1;durP2;ratioP2;P2;SDS_P1;SDS_P2;PMS_P1;PMS_P2;Temp;Humidity;BMP_temperature;BMP_pressure;BME280_temperature;BME280_humidity;BME280_pressure;Samples;Min_cycle;Max_cycle;Signal;HPM_P1;HPM_P2
2021/12/15 00:00:18;;;;;;;51.15;23.80;;;8.00;99.90;;;;;;5108938;28;20376;-53
2021/12/15 00:02:45;;;;;;;51.55;23.35;;;7.90;99.90;;;;;;5109547;28;20396;-52
2021/12/15 00:05:13;;;;;;;52.35;22.27;;;8.00;99.90;;;;;;5108751;28;20365;-52
2021/12/15 00:07:39;;;;;;;43.65;21.10;;;8.00;99.90;;;;;;5109768;28;20376;-53
2021/12/15 00:10:06;;;;;;;46.80;22.80;;;8.00;99.90;;;;;;5108710;28;20407;-56
2021/12/15 00:12:32;;;;;;;53.15;23.10;;;7.90;99.90;;;;;;5109306;28;20372;-54
2021/12/15 00:14:57;;;;;;;54.33;22.60;;;7.90;99.90;;;;;;5109330;28;20407;-53
2021/12/15 00:17:23;;;;;;;50.73;21.83;;;7.90;99.90;;;;;;5108723;28;20479;-53
2021/12/15 00:19:50;;;;;;;54.55;22.67;;;8.00;99.90;;;;;;5108120;28;20912;-53
2021/12/15 00:22:17;;;;;;;56.57;22.70;;;7.90;99.90;;;;;;5108788;28;20368;-52
2021/12/15 00:24:42;;;;;;;55.60;23.48;;;7.80;99.90;;;;;;5109319;28;20789;-53
2021/12/15 00:27:08;;;;;;;62.67;23.63;;;7.90;99.90;;;;;;5108556;28;20378;-54
2021/12/15 00:29:34;;;;;;;59.77;24.07;;;8.00;99.90;;;;;;5109626;28;20462;-53
2021/12/15 00:32:04;;;;;;;60.85;23.17;;;7.90;99.90;;;;;;5109603;28;20387;-53
2021/12/15 00:34:34;;;;;;;62.83;24.20;;;8.10;99.90;;;;;;5108649;28;20380;-53
2021/12/15 00:37:00;;;;;;;61.95;24.50;;;8.00;99.90;;;;;;5108806;28;20440;-54
2021/12/15 00:39:27;;;;;;;63.30;24.42;;;8.10;99.90;;;;;;5107757;28;20395;-53
2021/12/15 00:41:54;;;;;;;64.05;24.30;;;8.10;99.90;;;;;;5109124;28;20380;-53
2021/12/15 00:44:20;;;;;;;67.85;25.70;;;8.00;99.90;;;;;;5108547;28;20492;-53
2021/12/15 00:46:45;;;;;;;74.10;26.10;;;7.90;99.90;;;;;;5110966;28;20392;-53
2021/12/15 00:49:12;;;;;;;64.97;25.07;;;7.70;99.90;;;;;;5112432;28;20422;-53
2021/12/15 00:51:40;;;;;;;70.40;25.95;;;7.80;99.90;;;;;;5112805;28;20463;-53
2021/12/15 00:54:07;;;;;;;57.00;23.80;;;7.90;99.90;;;;;;5112483;28;20425;-57
2021/12/15 00:56:34;;;;;;;58.83;21.10;;;7.90;99.90;;;;;;5112493;28;20457;-53
2021/12/15 00:59:01;;;;;;;65.07;21.88;;;7.80;99.90;;;;;;5112821;27;20423;-56
2021/12/15 01:01:27;;;;;;;71.70;23.55;;;7.80;99.90;;;;;;5112229;28;20372;-53
2021/12/15 01:03:53;;;;;;;68.82;22.88;;;7.80;99.90;;;;;;5112801;28;20400;-52
2021/12/15 01:06:21;;;;;;;68.50;22.25;;;7.70;99.90;;;;;;5111965;28;20445;-53
2021/12/15 01:08:53;;;;;;;54.90;19.70;;;7.70;99.90;;;;;;5112825;28;20377;-52
2021/12/15 01:11:31;;;;;;;63.20;22.15;;;7.70;99.90;;;;;;5111446;28;20853;-52
2021/12/15 01:22:15;;;;;;;59.00;20.75;;;7.60;99.90;;;;;;5111591;28;20481;-52
2021/12/15 01:24:41;;;;;;;53.92;20.33;;;7.70;99.90;;;;;;5111864;28;20404;-52
2021/12/15 01:27:07;;;;;;;49.10;19.90;;;7.60;99.90;;;;;;5112035;28;20433;-56
2021/12/15 01:29:33;;;;;;;54.65;20.40;;;7.70;99.90;;;;;;5110704;28;20379;-52
2021/12/15 01:31:58;;;;;;;59.95;21.38;;;7.70;99.90;;;;;;5111958;28;20376;-52
2021/12/15 01:34:24;;;;;;;77.10;23.60;;;7.80;99.90;;;;;;5111559;28;20384;-53
2021/12/15 01:36:50;;;;;;;75.93;21.80;;;7.90;99.90;;;;;;5111817;28;20810;-52
2021/12/15 01:39:16;;;;;;;87.57;24.42;;;7.90;99.90;;;;;;5111361;28;20364;-52
2021/12/15 01:41:43;;;;;;;79.35;24.00;;;7.90;99.90;;;;;;5111908;28;20472;-52
2021/12/15 01:46:56;;;;;;;59.92;21.98;;;7.90;99.90;;;;;;5112058;28;20435;-52
2021/12/15 01:49:38;;;;;;;68.45;24.27;;;7.90;99.90;;;;;;5110963;28;20376;-52
2021/12/15 01:52:09;;;;;;;76.05;24.27;;;8.10;99.90;;;;;;5111768;28;20388;-52
2021/12/15 01:54:37;;;;;;;70.10;23.98;;;8.00;99.90;;;;;;5112149;28;20381;-52
2021/12/15 01:57:06;;;;;;;74.18;23.88;;;8.00;99.90;;;;;;5111475;28;20393;-52
2021/12/15 01:59:32;;;;;;;70.07;23.35;;;8.00;99.90;;;;;;5111381;28;20376;-53
2021/12/15 02:01:59;;;;;;;66.90;22.13;;;7.90;99.90;;;;;;5111759;28;20463;-53
2021/12/15 02:04:24;;;;;;;59.28;21.20;;;7.90;99.90;;;;;;5110758;28;20404;-53
2021/12/15 02:06:52;;;;;;;51.90;20.15;;;7.90;99.90;;;;;;5111861;28;20392;-53
2021/12/15 02:12:19;;;;;;;48.25;19.35;;;8.10;99.90;;;;;;5105386;28;20396;-53
2021/12/15 02:14:45;;;;;;;54.15;19.85;;;8.20;99.90;;;;;;5111346;28;20427;-53
2021/12/15 02:17:10;;;;;;;61.23;20.03;;;8.10;99.90;;;;;;5110628;28;20826;-54
2021/12/15 02:19:36;;;;;;;53.88;19.25;;;8.10;99.90;;;;;;5111377;28;20719;-53
2021/12/15 02:22:02;;;;;;;56.63;19.80;;;8.00;99.90;;;;;;5111112;28;20377;-53
2021/12/15 02:24:28;;;;;;;52.28;19.92;;;8.10;99.90;;;;;;5110199;28;20400;-53
2021/12/15 02:26:59;;;;;;;52.43;19.57;;;8.10;99.90;;;;;;5111122;28;20429;-54
2021/12/15 02:29:29;;;;;;;61.05;20.50;;;8.00;99.90;;;;;;5110471;28;20417;-53
2021/12/15 02:37:23;;;;;;;84.38;25.08;;;8.00;99.90;;;;;;5110460;28;20428;-52
2021/12/15 02:39:53;;;;;;;60.92;21.52;;;7.80;99.90;;;;;;5110822;28;20384;-53
2021/12/15 02:42:23;;;;;;;55.80;20.27;;;7.80;99.90;;;;;;5110082;28;20475;-53
2021/12/15 02:44:49;;;;;;;50.67;19.57;;;7.80;99.90;;;;;;5109853;28;20471;-52
2021/12/15 02:47:19;;;;;;;52.45;20.25;;;7.80;99.90;;;;;;5110302;28;20889;-53
2021/12/15 02:49:46;;;;;;;48.03;19.55;;;7.70;99.90;;;;;;5111356;28;20788;-53
2021/12/15 02:52:12;;;;;;;47.80;19.40;;;7.80;99.90;;;;;;5108923;28;20442;-53
2021/12/15 02:54:38;;;;;;;46.47;19.65;;;7.90;99.90;;;;;;5110810;28;20391;-52
2021/12/15 02:57:09;;;;;;;51.63;20.13;;;7.90;99.90;;;;;;5110922;28;20364;-52
2021/12/15 02:59:59;;;;;;;47.30;19.77;;;7.80;99.90;;;;;;5110814;28;20385;-53
2021/12/15 03:05:25;;;;;;;52.40;22.40;;;7.80;99.90;;;;;;5109924;28;20718;-52
2021/12/15 03:15:50;;;;;;;44.22;21.02;;;7.80;99.90;;;;;;5110255;28;20419;-53
2021/12/15 03:18:19;;;;;;;45.45;20.55;;;7.80;99.90;;;;;;5108141;28;20793;-52
2021/12/15 03:20:54;;;;;;;51.10;21.10;;;7.80;99.90;;;;;;5110168;28;20902;-53
2021/12/15 03:23:26;;;;;;;45.33;21.42;;;7.90;99.90;;;;;;5109255;28;20408;-52
2021/12/15 03:25:53;;;;;;;46.55;21.27;;;7.90;99.90;;;;;;5109685;28;20463;-53
2021/12/15 03:34:12;;;;;;;42.95;20.77;;;8.00;99.90;;;;;;5109697;28;20367;-52
2021/12/15 03:39:30;;;;;;;46.05;20.48;;;8.00;99.90;;;;;;5109222;28;20399;-53
2021/12/15 03:42:01;;;;;;;46.95;21.48;;;7.80;99.90;;;;;;5110072;28;20383;-53
2021/12/15 03:44:29;;;;;;;38.10;19.73;;;7.80;99.90;;;;;;5109366;28;20553;-53
2021/12/15 03:46:55;;;;;;;41.93;20.20;;;7.80;99.90;;;;;;5109746;28;20400;-53
2021/12/15 03:49:21;;;;;;;43.15;19.60;;;7.90;99.90;;;;;;5109164;28;20379;-53
2021/12/15 03:51:47;;;;;;;47.20;21.70;;;7.90;99.90;;;;;;5109947;28;20369;-53
2021/12/15 03:54:13;;;;;;;49.33;22.05;;;7.90;99.90;;;;;;5108995;28;20380;-53
2021/12/15 03:56:43;;;;;;;45.92;19.98;;;7.90;99.90;;;;;;5109593;28;20760;-53
2021/12/15 03:59:09;;;;;;;42.65;20.67;;;7.90;99.90;;;;;;5108067;28;20687;-56
2021/12/15 04:01:36;;;;;;;45.42;20.17;;;7.80;99.90;;;;;;5108987;28;20372;-53
2021/12/15 04:04:02;;;;;;;47.50;20.47;;;7.90;99.90;;;;;;5108231;28;20817;-52
2021/12/15 04:06:31;;;;;;;44.45;20.70;;;8.00;99.90;;;;;;5108379;28;20545;-53
2021/12/15 04:08:57;;;;;;;45.53;20.52;;;7.80;99.90;;;;;;5109161;28;20900;-53
2021/12/15 04:11:25;;;;;;;46.00;21.13;;;7.70;99.90;;;;;;5108091;28;20399;-52
2021/12/15 04:13:58;;;;;;;43.90;21.30;;;7.70;99.90;;;;;;5108260;28;20450;-54
2021/12/15 04:18:57;;;;;;;44.92;20.00;;;7.50;99.90;;;;;;5109361;28;20384;-53
2021/12/15 04:21:23;;;;;;;50.90;22.23;;;7.50;99.90;;;;;;5110270;28;20746;-53
2021/12/15 04:23:57;;;;;;;43.13;19.90;;;7.50;99.90;;;;;;5113591;28;20488;-55
2021/12/15 04:26:23;;;;;;;41.00;19.50;;;7.60;99.90;;;;;;5112545;27;20387;-53
2021/12/15 04:28:49;;;;;;;43.40;19.65;;;7.60;99.90;;;;;;5113225;28;20380;-53
2021/12/15 04:31:19;;;;;;;44.08;20.25;;;7.70;99.90;;;;;;5112464;28;20733;-53
2021/12/15 04:34:01;;;;;;;45.25;20.25;;;7.70;99.90;;;;;;5113483;28;20372;-53
2021/12/15 04:36:31;;;;;;;43.13;19.83;;;7.70;99.90;;;;;;5112385;28;20364;-53
2021/12/15 04:38:58;;;;;;;44.00;19.70;;;7.80;99.90;;;;;;5113302;28;20384;-53
2021/12/15 04:41:25;;;;;;;40.40;19.50;;;7.90;99.90;;;;;;5111133;28;20458;-53
2021/12/15 04:43:57;;;;;;;44.87;19.33;;;7.80;99.90;;;;;;5112830;27;20415;-53
2021/12/15 04:46:34;;;;;;;45.35;20.20;;;7.80;99.90;;;;;;5111948;28;20384;-53
2021/12/15 04:49:04;;;;;;;43.13;20.27;;;7.70;99.90;;;;;;5113106;28;20372;-52
2021/12/15 04:51:30;;;;;;;44.25;21.45;;;7.80;99.90;;;;;;5113539;27;20381;-53
2021/12/15 04:53:57;;;;;;;38.65;19.38;;;7.90;99.90;;;;;;5120806;27;20378;-53
2021/12/15 04:56:25;;;;;;;45.25;20.00;;;7.90;99.90;;;;;;5120800;27;20447;-53
2021/12/15 04:58:54;;;;;;;45.72;19.77;;;7.90;99.90;;;;;;5127931;27;20387;-53
2021/12/15 05:01:22;;;;;;;40.35;18.88;;;7.90;99.90;;;;;;5113674;27;20398;-54
2021/12/15 05:03:50;;;;;;;40.28;19.77;;;8.00;99.90;;;;;;5115863;27;20428;-53
2021/12/15 05:06:15;;;;;;;45.45;20.52;;;8.00;99.90;;;;;;5118088;27;20380;-55
2021/12/15 05:08:41;;;;;;;44.70;20.10;;;7.90;99.90;;;;;;5129688;27;20466;-55
2021/12/15 05:11:09;;;;;;;41.92;19.50;;;7.90;99.90;;;;;;5115337;27;20391;-53
2021/12/15 05:13:36;;;;;;;43.47;18.98;;;7.90;99.90;;;;;;5125535;27;20498;-54
2021/12/15 05:16:04;;;;;;;41.78;20.30;;;7.90;99.90;;;;;;5117873;27;20429;-53
2021/12/15 05:18:30;;;;;;;40.58;19.27;;;8.00;99.90;;;;;;5127165;28;20848;-54
2021/12/15 05:20:58;;;;;;;38.40;18.58;;;7.90;99.90;;;;;;5119449;28;20504;-55
2021/12/15 05:23:29;;;;;;;35.80;16.98;;;7.90;99.90;;;;;;5128020;27;20410;-54
2021/12/15 05:25:55;;;;;;;35.53;17.73;;;8.00;99.90;;;;;;5115799;28;20379;-53
2021/12/15 05:28:21;;;;;;;42.03;18.98;;;8.00;99.90;;;;;;5122363;27;20854;-54
2021/12/15 05:30:47;;;;;;;44.20;19.47;;;8.10;99.90;;;;;;5122940;28;20389;-54
2021/12/15 05:33:12;;;;;;;41.22;17.20;;;8.00;99.90;;;;;;5114507;27;20389;-58
2021/12/15 05:35:38;;;;;;;37.22;17.85;;;8.00;99.90;;;;;;5127591;28;20384;-54
2021/12/15 05:38:06;;;;;;;39.27;18.80;;;8.00;99.90;;;;;;5109473;27;20390;-55
2021/12/15 05:40:32;;;;;;;35.60;17.30;;;8.10;99.90;;;;;;5110017;28;20380;-54
2021/12/15 05:42:58;;;;;;;36.67;17.73;;;8.10;99.90;;;;;;5102037;28;20508;-54
2021/12/15 05:45:26;;;;;;;35.65;18.98;;;8.10;99.90;;;;;;5115040;28;20379;-54
2021/12/15 05:47:52;;;;;;;36.13;18.13;;;8.20;99.90;;;;;;5121730;27;20383;-53
2021/12/15 05:50:18;;;;;;;35.05;17.75;;;8.10;99.90;;;;;;5109951;28;20407;-54
2021/12/15 05:52:44;;;;;;;40.83;19.13;;;8.20;99.90;;;;;;5109696;28;20496;-53
2021/12/15 05:55:12;;;;;;;33.95;16.95;;;8.10;99.90;;;;;;5108947;28;20412;-57
2021/12/15 05:57:38;;;;;;;36.30;17.60;;;8.20;99.90;;;;;;5102610;28;20389;-54
2021/12/15 06:00:16;;;;;;;32.95;16.95;;;8.10;99.90;;;;;;5103902;28;20372;-54
2021/12/15 06:02:42;;;;;;;34.65;17.42;;;8.00;99.90;;;;;;5110748;28;20897;-55
2021/12/15 06:05:10;;;;;;;34.10;16.85;;;8.00;99.90;;;;;;5110312;28;20764;-54
2021/12/15 06:07:36;;;;;;;34.60;16.90;;;8.10;99.90;;;;;;5109895;28;20380;-54
2021/12/15 06:10:04;;;;;;;32.58;16.48;;;8.10;99.90;;;;;;5110526;28;20433;-54
2021/12/15 06:12:30;;;;;;;31.08;16.17;;;8.20;99.90;;;;;;5109812;28;20385;-54
2021/12/15 06:14:55;;;;;;;30.52;16.65;;;8.20;99.90;;;;;;5046651;28;1801681;-54
2021/12/15 06:17:25;;;;;;;32.15;16.38;;;8.10;99.90;;;;;;5110797;28;20380;-54
2021/12/15 06:19:55;;;;;;;33.70;15.88;;;8.10;99.90;;;;;;5111456;28;20484;-54
2021/12/15 06:22:26;;;;;;;30.37;16.00;;;8.00;99.90;;;;;;5108963;28;20396;-54
2021/12/15 06:24:56;;;;;;;33.20;15.45;;;8.10;99.90;;;;;;5111521;28;20400;-54
2021/12/15 06:27:24;;;;;;;35.03;16.85;;;8.10;99.90;;;;;;5110627;28;20384;-54
2021/12/15 06:29:52;;;;;;;38.10;16.83;;;8.20;99.90;;;;;;5111538;28;20404;-54
2021/12/15 06:32:19;;;;;;;33.75;16.67;;;8.20;99.90;;;;;;5110267;28;20369;-54
2021/12/15 06:34:45;;;;;;;31.25;16.08;;;8.10;99.90;;;;;;5111160;28;20463;-53
2021/12/15 06:37:12;;;;;;;31.47;17.27;;;8.20;99.90;;;;;;5110900;28;20514;-59
2021/12/15 06:39:38;;;;;;;30.98;15.65;;;8.20;99.90;;;;;;5111126;28;20421;-53
2021/12/15 06:42:05;;;;;;;30.43;16.30;;;8.10;99.90;;;;;;5110980;28;20459;-54
2021/12/15 06:44:30;;;;;;;31.00;16.05;;;8.10;99.90;;;;;;5109198;28;20758;-54
2021/12/15 07:00:28;;;;;;;33.10;17.33;;;7.90;99.90;;;;;;5109923;28;20703;-54
2021/12/15 07:02:54;;;;;;;36.40;17.40;;;7.90;99.90;;;;;;5108441;28;20443;-56
2021/12/15 07:05:21;;;;;;;35.20;17.35;;;7.90;99.90;;;;;;5104215;28;20443;-54
2021/12/15 07:07:47;;;;;;;34.97;17.10;;;7.90;99.90;;;;;;5110501;28;20373;-54
2021/12/15 07:10:16;;;;;;;39.20;18.98;;;8.00;99.90;;;;;;5109701;28;20384;-59
2021/12/15 07:12:41;;;;;;;36.30;18.45;;;7.90;99.90;;;;;;5109835;28;20376;-54
2021/12/15 07:15:09;;;;;;;32.20;16.40;;;7.60;99.90;;;;;;5108468;28;20912;-53
2021/12/15 07:17:36;;;;;;;42.93;19.90;;;7.80;99.90;;;;;;5109428;28;20448;-54
2021/12/15 07:20:29;;;;;;;36.85;19.95;;;7.70;99.90;;;;;;5110283;28;20384;-53
2021/12/15 07:22:50;;;;;;;37.33;19.70;;;7.70;99.90;;;;;;5109625;28;20420;-54
2021/12/15 07:25:16;;;;;;;35.47;19.08;;;7.80;99.90;;;;;;5107997;28;20430;-54
2021/12/15 07:27:42;;;;;;;32.47;18.80;;;7.80;99.90;;;;;;5109916;27;20385;-54
2021/12/15 07:30:09;;;;;;;34.60;18.27;;;7.80;99.90;;;;;;5109865;28;20451;-53
2021/12/15 07:32:35;;;;;;;35.63;18.05;;;7.80;99.90;;;;;;5109180;28;20385;-54
2021/12/15 07:35:02;;;;;;;33.53;17.83;;;7.80;99.90;;;;;;5109493;28;20451;-53
2021/12/15 07:37:27;;;;;;;36.97;19.02;;;7.90;99.90;;;;;;5107744;28;20376;-53
2021/12/15 07:40:00;;;;;;;33.50;18.33;;;7.80;99.90;;;;;;5109417;28;20752;-54
2021/12/15 07:42:34;;;;;;;35.70;19.42;;;7.80;99.90;;;;;;5108725;28;20383;-53
2021/12/15 07:45:01;;;;;;;31.60;17.35;;;7.70;99.90;;;;;;5109610;28;20979;-54
2021/12/15 07:47:27;;;;;;;34.40;17.88;;;7.70;99.90;;;;;;5108923;28;20381;-53
2021/12/15 07:49:53;;;;;;;33.77;17.70;;;7.70;99.90;;;;;;5109146;28;20372;-53
2021/12/15 07:52:19;;;;;;;34.92;16.58;;;7.70;99.90;;;;;;5108728;28;20849;-56
2021/12/15 07:54:44;;;;;;;34.40;16.80;;;7.70;99.90;;;;;;5109472;28;20379;-55
2021/12/15 07:57:17;;;;;;;31.13;17.27;;;7.80;99.90;;;;;;5109212;28;20876;-53
2021/12/15 07:59:43;;;;;;;31.23;17.10;;;7.80;99.90;;;;;;5108984;28;20399;-55
2021/12/15 08:02:09;;;;;;;29.80;16.45;;;7.80;99.90;;;;;;5109645;28;20841;-54
2021/12/15 08:04:34;;;;;;;29.83;15.15;;;7.80;99.90;;;;;;5108312;28;20496;-53
2021/12/15 08:07:00;;;;;;;34.20;15.73;;;7.90;99.90;;;;;;5109392;28;20376;-54
2021/12/15 08:09:26;;;;;;;31.20;15.60;;;7.80;99.90;;;;;;5108617;28;20376;-53
2021/12/15 08:11:52;;;;;;;30.90;15.27;;;7.70;99.90;;;;;;5108895;28;20385;-53
2021/12/15 08:14:18;;;;;;;31.03;16.20;;;7.70;99.90;;;;;;5108223;28;20404;-58
2021/12/15 08:16:43;;;;;;;31.67;15.77;;;7.60;99.90;;;;;;5108771;28;20527;-51
2021/12/15 08:19:10;;;;;;;31.75;15.52;;;7.60;99.90;;;;;;5109181;28;21241;-55
2021/12/15 08:21:35;;;;;;;29.15;15.25;;;7.50;99.90;;;;;;5108221;28;20373;-54
2021/12/15 08:24:02;;;;;;;31.80;16.48;;;7.60;99.90;;;;;;5109138;28;20417;-54
2021/12/15 08:26:28;;;;;;;30.60;14.93;;;7.70;99.90;;;;;;5108037;28;20456;-55
2021/12/15 08:28:54;;;;;;;31.47;16.33;;;7.70;99.90;;;;;;5108836;28;20388;-56
2021/12/15 08:31:20;;;;;;;28.45;15.07;;;7.60;99.90;;;;;;5108010;28;20372;-52
2021/12/15 08:33:46;;;;;;;30.60;16.05;;;7.70;99.90;;;;;;5108856;28;20380;-52
2021/12/15 08:36:13;;;;;;;26.20;14.50;;;7.80;99.90;;;;;;5109025;28;20455;-54
2021/12/15 08:38:42;;;;;;;29.52;16.45;;;9.00;99.90;;;;;;5108420;28;20464;-53
2021/12/15 08:41:20;;;;;;;35.42;20.40;;;7.90;99.90;;;;;;5108621;28;20479;-53
2021/12/15 08:43:46;;;;;;;42.60;24.77;;;8.10;99.90;;;;;;5109230;28;20404;-54
2021/12/15 08:46:31;;;;;;;28.17;16.05;;;8.10;99.90;;;;;;5108893;28;20489;-53
2021/12/15 08:48:59;;;;;;;28.07;16.07;;;8.10;99.90;;;;;;5109261;28;20410;-53
2021/12/15 08:51:27;;;;;;;37.67;24.63;;;8.20;99.90;;;;;;5108466;28;20385;-53
2021/12/15 08:53:56;;;;;;;37.93;24.90;;;8.20;99.90;;;;;;5108809;28;20442;-53
2021/12/15 08:56:22;;;;;;;27.92;17.13;;;8.30;99.90;;;;;;5108183;28;20420;-53
2021/12/15 08:58:48;;;;;;;27.65;16.00;;;8.30;99.90;;;;;;5109017;28;20398;-55
2021/12/15 09:01:13;;;;;;;26.88;14.90;;;8.30;99.90;;;;;;5107306;28;20917;-54
2021/12/15 09:03:42;;;;;;;28.27;14.87;;;8.10;99.90;;;;;;5108308;28;20908;-54
2021/12/15 09:06:08;;;;;;;28.10;14.90;;;8.10;99.90;;;;;;5107593;28;20397;-53
2021/12/15 09:08:34;;;;;;;26.27;14.95;;;8.00;99.90;;;;;;5111737;28;20446;-53
2021/12/15 09:11:07;;;;;;;27.48;14.63;;;8.00;99.90;;;;;;5112601;28;20850;-53
2021/12/15 09:13:33;;;;;;;25.73;15.10;;;8.10;99.90;;;;;;5111298;28;20430;-53
2021/12/15 09:16:03;;;;;;;25.00;14.20;;;8.10;99.90;;;;;;5112422;28;20376;-55
2021/12/15 09:18:28;;;;;;;22.00;12.32;;;8.10;99.90;;;;;;5111598;28;20377;-53
2021/12/15 09:20:54;;;;;;;19.83;11.60;;;8.10;99.90;;;;;;5112458;28;20373;-53
2021/12/15 09:23:20;;;;;;;21.45;11.80;;;8.10;99.90;;;;;;5110968;28;20417;-54
2021/12/15 09:25:47;;;;;;;22.13;11.95;;;8.10;99.90;;;;;;5112585;28;20857;-54
2021/12/15 09:28:13;;;;;;;22.00;13.35;;;8.10;99.90;;;;;;5112349;28;20375;-52
2021/12/15 09:30:44;;;;;;;22.35;11.90;;;8.10;99.90;;;;;;5111725;28;20377;-53
2021/12/15 09:33:20;;;;;;;20.95;12.05;;;8.20;99.90;;;;;;5112154;28;20437;-53
2021/12/15 09:35:47;;;;;;;19.48;10.90;;;8.20;99.90;;;;;;5111964;28;20884;-54
2021/12/15 09:38:16;;;;;;;19.30;10.25;;;8.10;99.90;;;;;;5107365;28;20404;-53
2021/12/15 09:40:42;;;;;;;18.50;10.23;;;8.20;99.90;;;;;;5103824;28;20505;-53
2021/12/15 09:43:10;;;;;;;17.42;10.10;;;8.10;99.90;;;;;;5104171;28;20506;-54
2021/12/15 09:45:53;;;;;;;17.55;9.85;;;8.20;99.90;;;;;;5109417;27;20415;-53
2021/12/15 09:56:50;;;;;;;17.30;9.80;;;8.20;99.90;;;;;;5131691;27;20795;-57
2021/12/15 10:04:31;;;;;;;18.70;10.10;;;8.30;99.90;;;;;;5131176;27;20406;-54
2021/12/15 10:17:25;;;;;;;15.73;9.88;;;8.40;99.90;;;;;;5126699;27;20951;-54
2021/12/15 10:18:16;;;;;;;17.10;9.30;;;8.50;99.90;;;;;;5116637;27;20382;-54
2021/12/15 10:20:42;;;;;;;18.15;9.20;;;8.40;99.90;;;;;;5111212;27;20405;-54
2021/12/15 10:23:15;;;;;;;16.83;9.02;;;8.40;99.90;;;;;;5099200;27;20875;-54
2021/12/15 10:25:49;;;;;;;18.42;8.90;;;8.50;99.90;;;;;;5106973;27;20930;-54
2021/12/15 10:28:25;;;;;;;15.68;8.05;;;8.50;99.90;;;;;;5102073;27;20408;-54
2021/12/15 10:30:53;;;;;;;15.30;8.00;;;8.60;99.90;;;;;;5106449;27;20383;-54
2021/12/15 10:33:24;;;;;;;22.13;11.15;;;8.60;99.90;;;;;;5119415;27;20813;-58
2021/12/15 10:35:57;;;;;;;12.60;6.18;;;8.50;99.90;;;;;;5091669;28;20389;-55
2021/12/15 10:38:27;;;;;;;12.97;6.53;;;8.30;99.90;;;;;;5089482;28;20401;-54
2021/12/15 10:40:58;;;;;;;13.13;6.00;;;8.30;99.90;;;;;;5089973;28;20439;-54
2021/12/15 10:43:28;;;;;;;10.60;5.60;;;8.10;99.90;;;;;;5089367;28;20574;-54
2021/12/15 10:45:59;;;;;;;14.63;7.00;;;7.90;99.90;;;;;;5090441;28;20385;-54
2021/12/15 10:48:36;;;;;;;10.13;5.38;;;8.00;99.90;;;;;;5089128;28;20370;-54
2021/12/15 10:51:44;;;;;;;10.50;5.30;;;8.00;99.90;;;;;;5090266;28;20465;-54
2021/12/15 10:54:28;;;;;;;10.05;4.97;;;8.00;99.90;;;;;;5027287;28;20402;-54
2021/12/15 10:57:00;;;;;;;12.05;5.90;;;7.80;99.90;;;;;;5027549;28;20477;-54
2021/12/15 10:59:29;;;;;;;10.83;5.67;;;7.80;99.90;;;;;;5065771;28;20409;-54
2021/12/15 11:01:58;;;;;;;11.65;6.10;;;7.80;99.90;;;;;;5089778;28;20410;-54
2021/12/15 11:04:29;;;;;;;10.57;5.43;;;7.90;99.90;;;;;;5104405;28;20406;-54
2021/12/15 11:07:13;;;;;;;9.77;4.60;;;7.90;99.90;;;;;;5089789;28;20389;-54
2021/12/15 11:09:43;;;;;;;8.82;4.57;;;8.00;99.90;;;;;;5089218;28;20521;-53
2021/12/15 11:12:16;;;;;;;9.10;4.10;;;8.10;99.90;;;;;;5089389;28;20454;-54
2021/12/15 11:14:47;;;;;;;8.80;4.70;;;7.90;99.90;;;;;;5088828;28;21179;-53
2021/12/15 11:17:21;;;;;;;10.63;5.15;;;7.90;99.90;;;;;;5089821;28;20381;-54
2021/12/15 11:19:56;;;;;;;11.05;5.05;;;7.80;99.90;;;;;;5089799;28;20386;-53
2021/12/15 11:22:41;;;;;;;8.63;5.03;;;7.80;99.90;;;;;;5088413;28;20740;-55
2021/12/15 11:25:15;;;;;;;9.95;4.93;;;7.70;99.90;;;;;;5089273;28;20431;-54
2021/12/15 11:27:41;;;;;;;8.60;4.53;;;7.80;99.90;;;;;;5088795;28;20374;-53
2021/12/15 11:30:12;;;;;;;9.10;4.90;;;7.90;99.90;;;;;;5088889;28;20432;-54
2021/12/15 11:32:47;;;;;;;8.55;4.40;;;7.80;99.90;;;;;;5088877;28;20444;-54
2021/12/15 11:35:23;;;;;;;9.90;4.90;;;7.70;99.90;;;;;;5089155;28;20374;-53
2021/12/15 11:37:51;;;;;;;11.10;5.75;;;7.60;99.90;;;;;;5088940;28;20918;-54
2021/12/15 11:40:28;;;;;;;11.43;6.53;;;7.50;99.90;;;;;;5089200;28;20394;-54
2021/12/15 11:42:55;;;;;;;11.50;6.78;;;7.60;99.90;;;;;;5088631;28;20818;-55
2021/12/15 11:45:21;;;;;;;13.50;7.30;;;6.50;99.90;;;;;;5088995;28;20474;-57
2021/12/15 11:47:47;;;;;;;11.33;6.43;;;7.70;99.90;;;;;;5089293;28;20375;-54
2021/12/15 11:50:18;;;;;;;11.50;6.75;;;7.60;99.90;;;;;;5089492;28;20378;-54
2021/12/15 11:52:47;;;;;;;11.27;7.00;;;7.50;99.90;;;;;;5088628;28;20447;-53
2021/12/15 11:55:28;;;;;;;12.43;7.55;;;7.50;99.90;;;;;;5088821;28;20477;-54
2021/12/15 11:57:55;;;;;;;10.90;6.72;;;7.60;99.90;;;;;;5088969;28;20898;-54
2021/12/15 12:00:25;;;;;;;10.70;6.22;;;7.60;99.90;;;;;;5088407;28;20394;-58
2021/12/15 12:02:54;;;;;;;12.05;6.70;;;7.70;99.90;;;;;;5087663;28;20925;-56
2021/12/15 12:05:28;;;;;;;10.67;6.60;;;7.60;99.90;;;;;;5088220;28;20413;-58
2021/12/15 12:07:58;;;;;;;11.02;6.75;;;7.70;99.90;;;;;;5087572;28;20868;-53
2021/12/15 12:10:31;;;;;;;12.07;6.80;;;7.90;99.90;;;;;;5087699;28;20405;-54
2021/12/15 12:13:11;;;;;;;11.52;6.70;;;8.00;99.90;;;;;;5092952;28;20429;-54
2021/12/15 12:15:40;;;;;;;8.90;5.60;;;7.90;99.90;;;;;;5108097;28;20499;-53
2021/12/15 12:18:08;;;;;;;9.15;6.00;;;7.90;99.90;;;;;;5109205;28;20467;-54
2021/12/15 12:20:38;;;;;;;10.07;6.17;;;7.60;99.90;;;;;;5109001;28;20400;-53
2021/12/15 12:23:07;;;;;;;10.48;5.93;;;6.40;99.90;;;;;;5098839;28;20436;-54
2021/12/15 12:25:37;;;;;;;10.38;5.90;;;7.60;99.90;;;;;;5106950;28;20391;-54
2021/12/15 12:28:06;;;;;;;13.30;6.90;;;7.50;99.90;;;;;;5108907;28;20402;-54
2021/12/15 12:30:42;;;;;;;12.25;6.95;;;7.60;99.90;;;;;;5108064;28;20422;-53
2021/12/15 12:33:11;;;;;;;20.83;11.05;;;7.70;99.90;;;;;;5108874;28;20394;-55
2021/12/15 12:35:45;;;;;;;8.65;4.68;;;7.80;99.90;;;;;;5108255;28;20459;-54
2021/12/15 12:38:17;;;;;;;9.03;5.60;;;7.70;99.90;;;;;;5107685;28;20380;-53
2021/12/15 12:40:57;;;;;;;11.47;6.40;;;7.60;99.90;;;;;;5108322;28;20372;-54
2021/12/15 12:43:33;;;;;;;9.60;5.43;;;7.30;99.90;;;;;;5111626;28;20403;-58
2021/12/15 12:46:24;;;;;;;9.00;5.20;;;7.70;99.90;;;;;;5112794;28;20479;-54
2021/12/15 12:49:23;;;;;;;10.50;6.07;;;7.50;99.90;;;;;;5112634;28;20448;-54
2021/12/15 13:00:32;;;;;;;8.55;4.90;;;7.30;99.90;;;;;;5112626;28;20954;-54
2021/12/15 13:03:01;;;;;;;10.20;5.82;;;7.30;99.90;;;;;;5112801;28;20467;-53
2021/12/15 13:05:47;;;;;;;9.85;5.95;;;7.30;99.90;;;;;;5111851;28;20399;-54
2021/12/15 13:08:36;;;;;;;10.02;6.03;;;7.40;99.90;;;;;;5112703;28;20372;-54
2021/12/15 13:11:34;;;;;;;8.82;5.15;;;7.40;99.90;;;;;;5112075;28;20482;-54
2021/12/15 13:14:17;;;;;;;9.00;4.80;;;7.30;99.90;;;;;;5107468;28;20476;-54
2021/12/15 13:16:57;;;;;;;10.20;6.43;;;7.10;99.90;;;;;;5111911;28;20501;-53
2021/12/15 13:19:29;;;;;;;8.65;4.90;;;7.10;99.90;;;;;;5112242;28;20387;-58
2021/12/15 13:30:47;;;;;;;9.45;5.90;;;7.40;99.90;;;;;;5088830;28;20830;-54
2021/12/15 13:33:27;;;;;;;8.13;4.70;;;7.50;99.90;;;;;;5091596;28;20382;-54
2021/12/15 13:35:56;;;;;;;8.57;5.20;;;7.40;99.90;;;;;;5091767;28;20412;-54
2021/12/15 13:38:31;;;;;;;9.45;5.70;;;7.30;99.90;;;;;;5106697;27;20380;-58
2021/12/15 13:41:03;;;;;;;9.63;6.30;;;7.20;99.90;;;;;;5131582;27;20908;-53
2021/12/15 13:43:49;;;;;;;9.18;5.55;;;7.10;99.90;;;;;;5132155;27;20471;-54
2021/12/15 13:46:29;;;;;;;9.17;5.50;;;7.00;99.90;;;;;;5132373;27;20375;-53
2021/12/15 13:49:18;;;;;;;9.13;5.57;;;7.00;99.90;;;;;;5123060;27;20389;-54
2021/12/15 13:52:09;;;;;;;11.18;6.75;;;7.00;99.90;;;;;;5108748;27;20643;-55
2021/12/15 13:54:37;;;;;;;11.55;6.80;;;7.00;99.90;;;;;;5116400;27;20387;-54
2021/12/15 13:57:11;;;;;;;9.65;5.85;;;7.10;99.90;;;;;;5111034;27;20447;-54
2021/12/15 13:59:45;;;;;;;9.30;5.90;;;7.10;99.90;;;;;;5112920;27;20437;-55
2021/12/15 14:02:19;;;;;;;9.95;5.55;;;6.90;99.90;;;;;;5111066;27;20393;-55
2021/12/15 14:04:47;;;;;;;9.47;5.33;;;6.90;99.90;;;;;;5131142;27;20726;-53
2021/12/15 14:07:28;;;;;;;9.40;6.07;;;6.90;99.90;;;;;;5131738;27;20377;-55
2021/12/15 14:10:00;;;;;;;9.57;5.90;;;6.90;99.90;;;;;;5131904;27;20382;-54
2021/12/15 14:12:44;;;;;;;9.50;5.32;;;7.10;99.90;;;;;;5128582;27;20382;-55
2021/12/15 14:15:24;;;;;;;10.80;6.22;;;7.10;99.90;;;;;;5111392;28;20877;-53
2021/12/15 14:18:10;;;;;;;10.88;5.88;;;7.10;99.90;;;;;;5111147;28;20364;-53
2021/12/15 14:20:43;;;;;;;9.02;5.03;;;7.00;99.90;;;;;;5110487;28;20380;-54
2021/12/15 14:23:21;;;;;;;9.68;5.90;;;7.10;99.90;;;;;;5111282;28;20400;-54
2021/12/15 14:25:48;;;;;;;11.10;6.20;;;7.10;99.90;;;;;;5110254;28;20372;-54
2021/12/15 14:28:22;;;;;;;10.73;6.20;;;7.10;99.90;;;;;;5109702;28;20727;-54